createdAt,value
2023-01-02T00:01:55.119Z,9.60
2023-01-02T00:04:21.702Z,11.40
2023-01-02T00:06:48.383Z,7.73
2023-01-02T00:09:15.074Z,8.20
2023-01-02T00:11:41.634Z,6.70
2023-01-02T00:14:08.172Z,4.70
2023-01-02T00:16:34.766Z,5.80
2023-01-02T00:19:01.357Z,4.53
2023-01-02T00:21:27.978Z,7.90
2023-01-02T00:23:56.766Z,11.70
2023-01-02T00:26:23.395Z,12.80
2023-01-02T00:28:50.036Z,11.90
2023-01-02T00:31:16.660Z,7.33
2023-01-02T00:33:44.528Z,7.80
2023-01-02T00:36:13.024Z,8.90
2023-01-02T00:38:40.720Z,9.60
2023-01-02T00:41:15.056Z,6.10
2023-01-02T00:43:43.394Z,8.67
2023-01-02T00:46:12.170Z,8.00
2023-01-02T00:48:39.799Z,7.23
2023-01-02T00:51:06.416Z,6.73
2023-01-02T00:53:32.982Z,11.33
2023-01-02T00:55:59.527Z,8.23
2023-01-02T00:58:26.138Z,6.73
2023-01-02T01:00:52.869Z,6.20
2023-01-02T01:03:19.476Z,5.37
2023-01-02T01:05:46.039Z,4.70
2023-01-02T01:08:13.334Z,6.37
2023-01-02T01:10:39.989Z,6.00
2023-01-02T01:13:06.592Z,9.90
2023-01-02T01:15:34.405Z,7.80
2023-01-02T01:18:01.089Z,7.83
2023-01-02T01:20:27.834Z,5.83
2023-01-02T01:22:54.385Z,7.07
2023-01-02T01:25:21.002Z,11.40
2023-01-02T01:27:47.606Z,6.90
2023-01-02T01:30:14.232Z,4.83
2023-01-02T01:32:40.850Z,7.80
2023-01-02T01:35:07.713Z,6.30
2023-01-02T01:37:34.305Z,10.13
2023-01-02T01:40:00.855Z,5.97
2023-01-02T01:42:35.609Z,4.90
2023-01-02T01:45:02.497Z,13.33
2023-01-02T01:47:49.844Z,7.90
2023-01-02T01:50:22.779Z,5.00
2023-01-02T01:52:55.151Z,3.87
2023-01-02T01:55:25.682Z,7.20
2023-01-02T01:58:02.399Z,6.83
2023-01-02T02:00:30.058Z,9.33
2023-01-02T02:03:02.816Z,6.10
2023-01-02T02:05:31.002Z,5.90
2023-01-02T02:08:02.300Z,5.10
2023-01-02T02:10:28.920Z,8.13
2023-01-02T02:12:55.485Z,5.53
2023-01-02T02:15:29.073Z,8.10
2023-01-02T02:18:04.474Z,5.90
2023-01-02T02:20:53.182Z,7.60
2023-01-02T02:23:32.344Z,10.23
2023-01-02T02:26:14.480Z,7.30
2023-01-02T02:28:56.022Z,15.30
2023-01-02T02:31:44.862Z,8.23
2023-01-02T02:34:24.820Z,8.37
2023-01-02T02:37:01.709Z,5.80
2023-01-02T02:40:04.121Z,6.37
2023-01-02T02:43:10.733Z,11.23
2023-01-02T02:46:05.250Z,7.90
2023-01-02T02:48:47.029Z,15.07
2023-01-02T02:51:44.966Z,6.77
2023-01-02T02:54:21.687Z,9.03
2023-01-02T02:56:50.009Z,9.17
2023-01-02T02:59:17.892Z,5.40
2023-01-02T03:01:44.682Z,12.33
2023-01-02T03:04:18.288Z,6.97
2023-01-02T03:07:08.703Z,8.53
2023-01-02T03:09:54.206Z,6.90
2023-01-02T03:12:42.959Z,7.87
2023-01-02T03:15:18.305Z,9.03
2023-01-02T03:17:56.708Z,10.37
2023-01-02T03:20:28.191Z,10.40
2023-01-02T03:23:00.836Z,6.87
2023-01-02T03:25:28.147Z,8.13
2023-01-02T03:27:58.617Z,7.20
2023-01-02T03:30:25.452Z,7.00
2023-01-02T03:33:04.747Z,5.03
2023-01-02T03:35:43.242Z,5.07
2023-01-02T03:38:14.966Z,7.67
2023-01-02T03:40:49.512Z,4.80
2023-01-02T03:43:23.471Z,7.43
2023-01-02T03:46:08.576Z,9.77
2023-01-02T03:48:45.758Z,7.47
2023-01-02T03:51:12.561Z,8.33
2023-01-02T03:53:40.885Z,6.43
2023-01-02T03:56:28.348Z,5.60
2023-01-02T03:59:15.588Z,5.93
2023-01-02T04:01:52.574Z,7.40
2023-01-02T04:04:31.422Z,11.13
2023-01-02T04:07:01.194Z,8.70
2023-01-02T04:09:32.477Z,7.90
2023-01-02T04:12:05.043Z,6.63
2023-01-02T04:14:40.260Z,7.27
2023-01-02T04:17:11.067Z,7.73
2023-01-02T04:19:43.092Z,8.00
2023-01-02T04:22:19.068Z,8.03
2023-01-02T04:24:52.397Z,7.67
2023-01-02T04:27:23.019Z,11.97
2023-01-02T04:29:49.706Z,5.27
2023-01-02T04:32:40.831Z,7.40
2023-01-02T04:35:10.493Z,7.27
2023-01-02T04:37:41.067Z,9.80
2023-01-02T04:40:28.689Z,6.87
2023-01-02T04:43:07.137Z,6.67
2023-01-02T04:45:42.763Z,9.30
2023-01-02T04:48:09.317Z,9.60
2023-01-02T04:50:35.847Z,7.57
2023-01-02T04:53:02.421Z,8.20
2023-01-02T04:55:28.976Z,6.60
2023-01-02T04:57:57.755Z,9.80
2023-01-02T05:00:24.770Z,6.50
2023-01-02T05:02:51.387Z,6.40
2023-01-02T05:05:18.050Z,7.80
2023-01-02T05:07:44.639Z,5.93
2023-01-02T05:10:11.242Z,6.60
2023-01-02T05:12:39.106Z,5.60
2023-01-02T05:15:07.648Z,12.70
2023-01-02T05:17:39.290Z,9.67
2023-01-02T05:20:08.200Z,5.83
2023-01-02T05:22:53.471Z,7.17
2023-01-02T05:25:20.064Z,8.53
2023-01-02T05:27:46.656Z,7.63
2023-01-02T05:30:13.244Z,10.27
2023-01-02T05:32:39.785Z,5.73
2023-01-02T05:35:06.652Z,5.73
2023-01-02T05:37:33.197Z,5.27
2023-01-02T05:39:59.741Z,8.37
2023-01-02T05:42:26.286Z,9.03
2023-01-02T05:44:52.902Z,8.17
2023-01-02T05:47:19.532Z,8.17
2023-01-02T05:49:46.063Z,9.20
2023-01-02T05:52:12.673Z,6.03
2023-01-02T05:54:39.245Z,6.20
2023-01-02T05:57:05.834Z,9.73
2023-01-02T05:59:35.928Z,8.80
2023-01-02T06:02:03.045Z,4.20
2023-01-02T06:04:29.699Z,5.40
2023-01-02T06:06:56.308Z,14.83
2023-01-02T06:09:22.846Z,3.80
2023-01-02T06:11:49.405Z,11.40
2023-01-02T06:14:15.983Z,7.03
2023-01-02T06:16:42.681Z,5.30
2023-01-02T06:19:09.284Z,3.60
2023-01-02T06:21:35.898Z,6.43
2023-01-02T06:24:02.485Z,4.60
2023-01-02T06:26:34.623Z,10.60
2023-01-02T06:29:02.822Z,5.10
2023-01-02T06:31:29.744Z,10.17
2023-01-02T06:34:01.126Z,14.00
2023-01-02T06:36:31.139Z,5.20
2023-01-02T06:38:58.125Z,8.80
2023-01-02T06:41:25.021Z,4.73
2023-01-02T06:43:52.140Z,7.53
2023-01-02T06:46:22.097Z,4.30
2023-01-02T06:48:49.145Z,5.63
2023-01-02T06:51:18.436Z,5.53
2023-01-02T06:53:45.867Z,5.23
2023-01-02T06:56:15.735Z,4.57
2023-01-02T06:58:42.296Z,5.60
2023-01-02T07:01:11.755Z,7.07
2023-01-02T07:03:38.732Z,3.87
2023-01-02T07:06:08.466Z,6.50
2023-01-02T07:08:35.494Z,4.83
2023-01-02T07:11:10.931Z,4.70
2023-01-02T07:13:38.710Z,5.43
2023-01-02T07:16:07.473Z,3.37
2023-01-02T07:18:35.139Z,7.53
2023-01-02T07:21:01.743Z,5.70
2023-01-02T07:23:28.460Z,6.70
2023-01-02T07:25:58.301Z,5.07
2023-01-02T07:28:25.148Z,3.13
2023-01-02T07:30:51.718Z,3.07
2023-01-02T07:33:18.304Z,8.73
2023-01-02T07:35:45.317Z,4.20
2023-01-02T07:38:12.224Z,4.47
2023-01-02T07:40:38.982Z,5.57
2023-01-02T07:43:05.672Z,4.10
2023-01-02T07:45:36.589Z,6.80
2023-01-02T07:48:03.681Z,7.80
2023-01-02T07:50:30.279Z,9.00
2023-01-02T07:52:56.898Z,3.33
2023-01-02T07:55:23.585Z,6.93
2023-01-02T07:57:50.627Z,4.70
2023-01-02T08:00:18.402Z,4.03
2023-01-02T08:02:45.518Z,4.30
2023-01-02T08:05:12.184Z,2.57
2023-01-02T08:07:44.613Z,2.23
2023-01-02T08:10:12.354Z,9.00
2023-01-02T08:12:39.393Z,6.13
2023-01-02T08:15:06.495Z,4.63
2023-01-02T08:17:33.222Z,4.53
2023-01-02T08:20:06.861Z,8.20
2023-01-02T08:22:34.503Z,10.73
2023-01-02T08:25:01.185Z,6.60
2023-01-02T08:27:28.136Z,3.43
2023-01-02T08:29:54.844Z,8.50
2023-01-02T08:32:21.389Z,6.30
2023-01-02T08:34:48.142Z,3.93
2023-01-02T08:37:14.748Z,5.00
2023-01-02T08:39:41.353Z,3.33
2023-01-02T08:42:08.179Z,4.47
2023-01-02T08:44:36.975Z,5.60
2023-01-02T08:47:04.731Z,9.13
2023-01-02T08:49:31.311Z,6.50
2023-01-02T08:51:58.050Z,4.87
2023-01-02T08:54:24.660Z,9.63
2023-01-02T08:56:51.317Z,5.43
2023-01-02T08:59:17.976Z,7.40
2023-01-02T09:01:45.071Z,5.23
2023-01-02T09:04:13.118Z,3.10
2023-01-02T09:06:41.355Z,3.47
2023-01-02T09:09:11.923Z,4.63
2023-01-02T09:11:44.812Z,2.00
2023-01-02T09:14:11.503Z,2.70
2023-01-02T09:16:38.135Z,1.97
2023-01-02T09:19:05.197Z,0.60
2023-01-02T09:21:31.846Z,4.40
2023-01-02T09:23:58.772Z,1.37
2023-01-02T09:26:25.659Z,0.73
2023-01-02T09:28:52.373Z,1.20
2023-01-02T09:31:19.592Z,0.87
2023-01-02T09:33:47.770Z,1.77
2023-01-02T09:36:16.636Z,0.97
2023-01-02T09:38:43.674Z,4.37
2023-01-02T09:41:32.921Z,0.67
2023-01-02T09:44:11.070Z,2.50
2023-01-02T09:46:47.217Z,1.77
2023-01-02T09:49:19.155Z,1.53
2023-01-02T09:51:46.152Z,1.60
2023-01-02T09:54:24.345Z,5.80
2023-01-02T09:57:13.074Z,1.60
2023-01-02T10:00:21.793Z,1.57
2023-01-02T10:03:08.255Z,1.53
2023-01-02T10:06:04.053Z,1.30
2023-01-02T10:08:40.962Z,1.10
2023-01-02T10:11:26.896Z,2.07
2023-01-02T10:14:21.040Z,2.53
2023-01-02T10:16:52.450Z,5.70
2023-01-02T10:19:36.770Z,1.77
2023-01-02T10:22:04.194Z,1.33
2023-01-02T10:24:55.826Z,1.60
2023-01-02T10:27:28.757Z,1.97
2023-01-02T10:30:13.382Z,2.77
2023-01-02T10:32:47.602Z,2.03
2023-01-02T10:35:46.868Z,1.13
2023-01-02T10:38:16.551Z,0.80
2023-01-02T10:40:46.729Z,1.47
2023-01-02T10:43:14.611Z,1.83
2023-01-02T10:45:42.008Z,1.90
2023-01-02T10:48:12.453Z,2.53
2023-01-02T10:50:44.441Z,1.27
2023-01-02T10:53:28.335Z,1.57
2023-01-02T10:55:54.936Z,2.80
2023-01-02T10:58:25.250Z,3.00
2023-01-02T11:01:04.114Z,1.70
2023-01-02T11:03:31.003Z,1.47
2023-01-02T11:06:05.869Z,3.90
2023-01-02T11:08:54.449Z,2.30
2023-01-02T11:11:20.997Z,2.93
2023-01-02T11:13:54.356Z,3.47
2023-01-02T11:16:23.114Z,2.80
2023-01-02T11:18:53.399Z,3.57
2023-01-02T11:21:32.891Z,3.47
2023-01-02T11:24:03.739Z,5.03
2023-01-02T11:26:32.625Z,6.27
2023-01-02T11:29:07.147Z,3.10
2023-01-02T11:31:34.467Z,3.90
2023-01-02T11:34:10.218Z,3.57
2023-01-02T11:36:37.302Z,5.13
2023-01-02T11:39:22.543Z,4.10
2023-01-02T11:42:36.931Z,5.83
2023-01-02T11:45:08.363Z,4.20
2023-01-02T11:47:49.245Z,4.47
2023-01-02T11:50:27.389Z,4.77
2023-01-02T11:53:12.103Z,3.33
2023-01-02T11:55:49.429Z,3.70
2023-01-02T11:58:30.916Z,3.03
2023-01-02T12:01:12.312Z,4.57
2023-01-02T12:03:40.099Z,4.10
2023-01-02T12:06:15.616Z,3.40
2023-01-02T12:09:09.044Z,4.20
2023-01-02T12:11:44.497Z,3.60
2023-01-02T12:14:21.985Z,4.47
2023-01-02T12:17:18.437Z,4.27
2023-01-02T12:20:05.712Z,3.50
2023-01-02T12:22:56.405Z,3.80
2023-01-02T12:26:08.842Z,4.43
2023-01-02T12:29:46.459Z,4.67
2023-01-02T12:32:33.267Z,4.40
2023-01-02T12:35:22.251Z,3.70
2023-01-02T12:38:07.315Z,4.53
2023-01-02T12:40:57.685Z,4.53
2023-01-02T12:43:44.145Z,4.20
2023-01-02T12:46:39.047Z,5.73
2023-01-02T12:49:21.127Z,9.00
2023-01-02T12:52:15.341Z,6.20
2023-01-02T12:55:00.276Z,5.63
2023-01-02T12:57:35.606Z,6.30
2023-01-02T13:00:16.951Z,4.90
2023-01-02T13:03:22.811Z,4.60
2023-01-02T13:05:55.354Z,5.10
2023-01-02T13:08:46.263Z,4.70
2023-01-02T13:11:21.005Z,4.80
2023-01-02T13:13:48.049Z,5.50
2023-01-02T13:16:24.824Z,5.17
2023-01-02T13:19:37.760Z,4.80
2023-01-02T13:22:29.366Z,4.63
2023-01-02T13:24:57.804Z,7.63
2023-01-02T13:27:25.032Z,4.73
2023-01-02T13:29:53.523Z,5.77
2023-01-02T13:32:28.727Z,5.47
2023-01-02T13:34:58.731Z,5.40
2023-01-02T13:37:27.554Z,6.17
2023-01-02T13:39:57.499Z,5.57
2023-01-02T13:42:52.555Z,12.33
2023-01-02T13:45:32.798Z,8.30
2023-01-02T13:48:03.607Z,4.73
2023-01-02T13:50:35.862Z,3.00
2023-01-02T13:53:04.175Z,4.50
2023-01-02T13:55:39.778Z,4.10
2023-01-02T13:58:12.321Z,4.77
2023-01-02T14:00:46.950Z,5.00
2023-01-02T14:03:24.303Z,4.80
2023-01-02T14:05:57.153Z,4.00
2023-01-02T14:08:26.979Z,5.10
2023-01-02T14:11:10.141Z,6.33
2023-01-02T14:13:50.000Z,4.47
2023-01-02T14:16:23.237Z,4.83
2023-01-02T14:19:16.516Z,4.80
2023-01-02T14:21:58.412Z,4.80
2023-01-02T14:24:39.776Z,5.90
2023-01-02T14:27:28.185Z,6.67
2023-01-02T14:30:05.599Z,7.50
2023-01-02T14:32:34.927Z,7.07
2023-01-02T14:35:06.480Z,6.87
2023-01-02T14:38:05.470Z,7.37
2023-01-02T14:40:41.124Z,6.77
2023-01-02T14:43:29.320Z,7.50
2023-01-02T14:46:06.401Z,10.17
2023-01-02T14:48:54.922Z,13.57
2023-01-02T14:51:32.795Z,8.93
2023-01-02T14:54:12.298Z,10.33
2023-01-02T14:56:42.892Z,9.93
2023-01-02T14:59:17.999Z,12.23
2023-01-02T15:01:49.674Z,14.83
2023-01-02T15:04:38.682Z,12.87
2023-01-02T15:07:31.638Z,12.90
2023-01-02T15:10:02.237Z,12.67
2023-01-02T15:12:49.956Z,10.07
2023-01-02T15:15:20.042Z,15.83
2023-01-02T15:17:50.513Z,13.57
2023-01-02T15:20:24.081Z,12.77
2023-01-02T15:22:55.385Z,14.33
2023-01-02T15:25:40.148Z,15.30
2023-01-02T15:28:21.976Z,11.70
2023-01-02T15:31:11.052Z,11.13
2023-01-02T15:33:37.964Z,9.47
2023-01-02T15:36:18.237Z,10.43
2023-01-02T15:38:45.327Z,12.37
2023-01-02T15:41:19.459Z,11.23
2023-01-02T15:44:06.346Z,13.83
2023-01-02T15:46:34.049Z,12.57
2023-01-02T15:49:02.855Z,5.77
2023-01-02T15:51:41.496Z,8.20
2023-01-02T15:54:15.419Z,10.47
2023-01-02T15:56:42.426Z,8.37
2023-01-02T15:59:38.849Z,11.03
2023-01-02T16:02:08.530Z,13.23
2023-01-02T16:04:35.399Z,11.60
2023-01-02T16:07:21.811Z,9.77
2023-01-02T16:09:54.868Z,20.20
2023-01-02T16:12:23.085Z,10.50
2023-01-02T16:14:55.449Z,5.50
2023-01-02T16:17:29.858Z,7.67
2023-01-02T16:20:02.391Z,7.13
2023-01-02T16:22:49.271Z,5.87
2023-01-02T16:25:20.638Z,8.57
2023-01-02T16:27:59.720Z,3.63
2023-01-02T16:30:34.013Z,5.10
2023-01-02T16:33:03.480Z,5.77
2023-01-02T16:35:34.271Z,5.60
2023-01-02T16:38:06.157Z,4.00
2023-01-02T16:41:00.865Z,2.90
2023-01-02T16:43:31.035Z,3.87
2023-01-02T16:45:58.958Z,4.00
2023-01-02T16:48:28.263Z,4.00
2023-01-02T16:50:56.905Z,7.30
2023-01-02T16:53:28.642Z,9.77
2023-01-02T16:55:55.307Z,8.17
2023-01-02T16:58:25.110Z,9.77
2023-01-02T17:00:54.081Z,9.33
2023-01-02T17:03:23.805Z,10.30
2023-01-02T17:06:03.467Z,8.13
2023-01-02T17:08:32.070Z,10.23
2023-01-02T17:10:59.405Z,8.60
2023-01-02T17:13:26.878Z,9.70
2023-01-02T17:15:54.026Z,12.30
2023-01-02T17:18:20.677Z,11.13
2023-01-02T17:20:47.262Z,8.77
2023-01-02T17:23:14.333Z,8.60
2023-01-02T17:25:43.525Z,11.20
2023-01-02T17:28:10.883Z,6.70
2023-01-02T17:30:38.154Z,7.63
2023-01-02T17:33:05.135Z,9.57
2023-01-02T17:35:34.986Z,11.27
2023-01-02T17:38:02.283Z,11.67
2023-01-02T17:40:29.079Z,10.40
2023-01-02T17:42:55.790Z,11.63
2023-01-02T17:45:24.785Z,17.53
2023-01-02T17:48:04.014Z,8.20
2023-01-02T17:50:39.930Z,10.40
2023-01-02T17:53:06.982Z,6.77
2023-01-02T17:55:33.752Z,7.20
2023-01-02T17:58:00.911Z,9.57
2023-01-02T18:00:28.375Z,11.90
2023-01-02T18:02:55.205Z,11.10
2023-01-02T18:05:22.635Z,7.27
2023-01-02T18:07:49.747Z,6.03
2023-01-02T18:10:20.505Z,7.10
2023-01-02T18:12:49.000Z,5.10
2023-01-02T18:15:17.194Z,21.37
2023-01-02T18:17:43.862Z,11.47
2023-01-02T18:20:18.881Z,7.87
2023-01-02T18:22:50.097Z,5.73
2023-01-02T18:25:21.590Z,6.60
2023-01-02T18:27:48.622Z,6.47
2023-01-02T18:30:19.942Z,5.77
2023-01-02T18:32:47.190Z,5.70
2023-01-02T18:38:37.596Z,4.00
2023-01-02T18:41:16.589Z,4.70
2023-01-02T18:43:45.270Z,5.60
2023-01-02T18:46:21.669Z,5.53
2023-01-02T18:48:48.477Z,6.30
2023-01-02T18:51:21.857Z,4.43
2023-01-02T18:53:53.092Z,3.97
2023-01-02T18:56:24.037Z,5.13
2023-01-02T18:59:15.520Z,4.90
2023-01-02T19:01:50.228Z,4.00
2023-01-02T19:04:28.211Z,7.37
2023-01-02T19:06:59.740Z,6.90
2023-01-02T19:09:39.596Z,6.00
2023-01-02T19:12:42.292Z,4.20
2023-01-02T19:15:36.829Z,4.80
2023-01-02T19:18:23.215Z,4.43
2023-01-02T19:20:58.528Z,5.70
2023-01-02T19:23:56.431Z,4.73
2023-01-02T19:26:31.652Z,5.00
2023-01-02T19:29:00.643Z,8.17
2023-01-02T19:31:43.555Z,7.70
2023-01-02T19:34:22.493Z,5.93
2023-01-02T19:36:53.264Z,8.30
2023-01-02T19:39:25.206Z,8.40
2023-01-02T19:42:10.247Z,7.57
2023-01-02T19:44:36.969Z,6.30
2023-01-02T19:47:03.988Z,8.93
2023-01-02T19:49:30.571Z,8.70
2023-01-02T19:51:57.144Z,7.20
2023-01-02T19:54:23.790Z,6.87
2023-01-02T19:56:50.368Z,5.33
2023-01-02T19:59:16.983Z,6.90
2023-01-02T20:01:43.629Z,6.80
2023-01-02T20:04:10.354Z,8.50
2023-01-02T20:06:36.940Z,7.03
2023-01-02T20:09:03.753Z,5.80
2023-01-02T20:11:49.573Z,7.07
2023-01-02T20:14:16.211Z,8.63
2023-01-02T20:16:42.793Z,8.43
2023-01-02T20:19:09.422Z,6.30
2023-01-02T20:21:36.187Z,6.43
2023-01-02T20:24:02.857Z,6.27
2023-01-02T20:26:29.437Z,9.93
2023-01-02T20:28:55.999Z,8.23
2023-01-02T20:31:22.605Z,9.10
2023-01-02T20:33:49.269Z,13.60
2023-01-02T20:36:15.843Z,7.37
2023-01-02T20:38:42.388Z,9.20
2023-01-02T20:41:08.988Z,10.83
2023-01-02T20:43:35.583Z,11.00
2023-01-02T20:46:02.234Z,9.47
2023-01-02T20:48:28.967Z,10.10
2023-01-02T20:50:55.648Z,15.13
2023-01-02T20:53:22.206Z,14.20
2023-01-02T20:55:48.833Z,13.13
2023-01-02T20:58:15.397Z,14.47
2023-01-02T21:00:42.015Z,11.90
2023-01-02T21:03:08.812Z,11.60
2023-01-02T21:05:36.556Z,11.50
2023-01-02T21:08:03.185Z,15.90
2023-01-02T21:10:29.743Z,12.10
2023-01-02T21:13:08.219Z,14.47
2023-01-02T21:15:50.356Z,14.43
2023-01-02T21:18:21.583Z,14.40
2023-01-02T21:20:50.713Z,18.00
2023-01-02T21:23:18.558Z,17.20
2023-01-02T21:25:45.620Z,13.67
2023-01-02T21:28:13.463Z,14.77
2023-01-02T21:30:41.444Z,14.80
2023-01-02T21:33:08.448Z,12.97
2023-01-02T21:35:35.490Z,16.43
2023-01-02T21:38:02.492Z,13.90
2023-01-02T21:40:29.487Z,18.40
2023-01-02T21:42:56.359Z,18.83
2023-01-02T21:45:23.299Z,21.07
2023-01-02T21:47:49.905Z,16.20
2023-01-02T21:50:17.160Z,18.93
2023-01-02T21:52:44.135Z,18.20
2023-01-02T21:55:11.154Z,17.07
2023-01-02T21:58:11.565Z,19.63
2023-01-02T22:00:26.845Z,15.33
2023-01-02T22:02:54.358Z,19.57
2023-01-02T22:05:22.409Z,15.47
2023-01-02T22:07:49.296Z,15.70
2023-01-02T22:10:16.369Z,13.67
2023-01-02T22:12:42.952Z,13.80
2023-01-02T22:15:11.799Z,15.37
2023-01-02T22:17:38.340Z,13.63
2023-01-02T22:20:05.321Z,14.80
2023-01-02T22:22:31.872Z,13.17
2023-01-02T22:24:58.472Z,16.53
2023-01-02T22:27:25.110Z,14.17
2023-01-02T22:32:42.130Z,15.13
2023-01-02T22:35:09.315Z,15.40
2023-01-02T22:37:35.879Z,17.30
2023-01-02T22:40:02.535Z,15.67
2023-01-02T22:43:06.906Z,17.53
2023-01-02T22:45:55.852Z,14.23
2023-01-02T22:48:22.447Z,16.53
2023-01-02T22:50:51.686Z,16.80
2023-01-02T22:53:24.679Z,16.37
2023-01-02T22:55:52.084Z,19.37
2023-01-02T22:58:19.433Z,12.63
2023-01-02T23:00:49.248Z,16.50
2023-01-02T23:03:16.636Z,18.30
2023-01-02T23:05:43.438Z,14.60
2023-01-02T23:08:10.147Z,15.80
2023-01-02T23:10:36.860Z,24.93
2023-01-02T23:13:03.521Z,24.53
2023-01-02T23:15:30.244Z,14.13
2023-01-02T23:18:15.413Z,19.20
2023-01-02T23:20:41.983Z,20.07
2023-01-02T23:23:08.770Z,16.93
2023-01-02T23:25:40.477Z,17.67
2023-01-02T23:28:07.029Z,17.90
2023-01-02T23:30:33.627Z,15.10
2023-01-02T23:33:00.203Z,14.50
2023-01-02T23:35:26.771Z,15.23
2023-01-02T23:37:53.310Z,14.60
2023-01-02T23:40:19.927Z,16.83
2023-01-02T23:42:46.477Z,14.30
2023-01-02T23:45:13.032Z,17.80
2023-01-02T23:47:39.598Z,16.93
2023-01-02T23:50:06.547Z,13.87
2023-01-02T23:52:33.147Z,19.00
2023-01-02T23:54:59.693Z,15.90
2023-01-02T23:57:26.237Z,16.67
2023-01-02T23:59:52.815Z,21.50
